sensor_id;sensor_type;location;lat;lon;timestamp;pressure;altitude;pressure_sealevel;temperature;humidity
77086;BME280;66014;53.134;18.006;2023-09-19T00:00:47;100118.06;;;22.13;58.21
77086;BME280;66014;53.134;18.006;2023-09-19T00:03:35;100118.16;;;22.10;58.38
77086;BME280;66014;53.134;18.006;2023-09-19T00:06:04;100114.64;;;22.10;58.27
77086;BME280;66014;53.134;18.006;2023-09-19T00:08:34;100113.08;;;22.12;58.36
77086;BME280;66014;53.134;18.006;2023-09-19T00:11:01;100116.59;;;22.11;58.61
77086;BME280;66014;53.134;18.006;2023-09-19T00:13:29;100121.18;;;22.06;58.67
77086;BME280;66014;53.134;18.006;2023-09-19T00:15:57;100125.40;;;22.03;58.89
77086;BME280;66014;53.134;18.006;2023-09-19T00:18:25;100128.73;;;21.99;59.01
77086;BME280;66014;53.134;18.006;2023-09-19T00:20:59;100129.70;;;21.97;59.17
77086;BME280;66014;53.134;18.006;2023-09-19T00:23:25;100136.47;;;21.94;59.31
77086;BME280;66014;53.134;18.006;2023-09-19T00:25:52;100139.98;;;21.92;59.39
77086;BME280;66014;53.134;18.006;2023-09-19T00:28:23;100139.87;;;21.91;59.60
77086;BME280;66014;53.134;18.006;2023-09-19T00:30:50;100138.28;;;21.91;60.03
77086;BME280;66014;53.134;18.006;2023-09-19T00:33:17;100138.95;;;21.91;60.18
77086;BME280;66014;53.134;18.006;2023-09-19T00:35:53;100139.43;;;21.93;60.20
77086;BME280;66014;53.134;18.006;2023-09-19T00:38:21;100138.74;;;21.96;60.53
77086;BME280;66014;53.134;18.006;2023-09-19T00:40:49;100137.02;;;21.97;60.49
77086;BME280;66014;53.134;18.006;2023-09-19T00:43:17;100135.08;;;21.99;60.71
77086;BME280;66014;53.134;18.006;2023-09-19T00:45:45;100129.61;;;21.98;60.89
77086;BME280;66014;53.134;18.006;2023-09-19T00:48:17;100130.35;;;21.97;60.95
77086;BME280;66014;53.134;18.006;2023-09-19T00:50:53;100131.75;;;21.94;61.19
77086;BME280;66014;53.134;18.006;2023-09-19T00:53:39;100126.98;;;21.91;61.33
77086;BME280;66014;53.134;18.006;2023-09-19T00:56:13;100123.33;;;21.91;61.21
77086;BME280;66014;53.134;18.006;2023-09-19T00:58:41;100119.54;;;21.93;61.26
77086;BME280;66014;53.134;18.006;2023-09-19T01:01:08;100113.21;;;21.92;61.25
77086;BME280;66014;53.134;18.006;2023-09-19T01:03:34;100112.19;;;21.95;61.23
77086;BME280;66014;53.134;18.006;2023-09-19T01:06:01;100114.26;;;21.96;61.29
77086;BME280;66014;53.134;18.006;2023-09-19T01:08:28;100117.34;;;21.96;61.43
77086;BME280;66014;53.134;18.006;2023-09-19T01:11:01;100115.39;;;21.95;61.40
77086;BME280;66014;53.134;18.006;2023-09-19T01:29:45;100091.80;;;21.95;61.53
77086;BME280;66014;53.134;18.006;2023-09-19T01:36:36;100075.05;;;21.96;61.66
77086;BME280;66014;53.134;18.006;2023-09-19T01:39:06;100057.88;;;21.97;61.34
77086;BME280;66014;53.134;18.006;2023-09-19T01:41:51;100054.15;;;22.00;61.53
77086;BME280;66014;53.134;18.006;2023-09-19T01:45:03;100056.05;;;22.02;61.40
77086;BME280;66014;53.134;18.006;2023-09-19T01:47:46;100066.63;;;22.01;61.46
77086;BME280;66014;53.134;18.006;2023-09-19T01:51:05;100081.73;;;21.99;61.74
77086;BME280;66014;53.134;18.006;2023-09-19T01:53:15;100093.84;;;21.90;62.04
77086;BME280;66014;53.134;18.006;2023-09-19T01:55:48;100088.16;;;21.81;62.53
77086;BME280;66014;53.134;18.006;2023-09-19T01:58:20;100080.97;;;21.73;62.67
77086;BME280;66014;53.134;18.006;2023-09-19T02:00:49;100077.98;;;21.67;62.92
77086;BME280;66014;53.134;18.006;2023-09-19T02:03:20;100083.17;;;21.65;63.06
77086;BME280;66014;53.134;18.006;2023-09-19T02:05:51;100088.71;;;21.60;63.39
77086;BME280;66014;53.134;18.006;2023-09-19T02:08:23;100089.60;;;21.54;63.60
77086;BME280;66014;53.134;18.006;2023-09-19T02:10:52;100101.67;;;21.46;64.12
77086;BME280;66014;53.134;18.006;2023-09-19T02:13:20;100091.71;;;21.37;64.41
77086;BME280;66014;53.134;18.006;2023-09-19T02:15:47;100091.94;;;21.31;64.74
77086;BME280;66014;53.134;18.006;2023-09-19T02:18:14;100095.73;;;21.26;65.10
77086;BME280;66014;53.134;18.006;2023-09-19T02:20:45;100097.48;;;21.21;65.53
77086;BME280;66014;53.134;18.006;2023-09-19T02:26:39;100094.82;;;21.04;66.27
77086;BME280;66014;53.134;18.006;2023-09-19T02:29:06;100090.23;;;21.00;66.62
77086;BME280;66014;53.134;18.006;2023-09-19T02:31:32;100084.45;;;20.95;67.05
77086;BME280;66014;53.134;18.006;2023-09-19T02:34:00;100079.27;;;20.91;67.19
77086;BME280;66014;53.134;18.006;2023-09-19T02:36:27;100089.34;;;20.87;67.53
77086;BME280;66014;53.134;18.006;2023-09-19T02:38:57;100092.65;;;20.82;67.88
77086;BME280;66014;53.134;18.006;2023-09-19T02:41:23;100093.89;;;20.77;68.05
77086;BME280;66014;53.134;18.006;2023-09-19T02:43:50;100100.02;;;20.73;68.60
77086;BME280;66014;53.134;18.006;2023-09-19T02:46:16;100105.46;;;20.65;68.72
77086;BME280;66014;53.134;18.006;2023-09-19T02:48:43;100109.80;;;20.61;69.10
77086;BME280;66014;53.134;18.006;2023-09-19T02:51:10;100106.39;;;20.56;69.26
77086;BME280;66014;53.134;18.006;2023-09-19T02:53:37;100126.10;;;20.53;70.07
77086;BME280;66014;53.134;18.006;2023-09-19T02:56:08;100131.58;;;20.44;71.11
77086;BME280;66014;53.134;18.006;2023-09-19T03:02:03;100125.33;;;20.10;73.31
77086;BME280;66014;53.134;18.006;2023-09-19T03:08:17;100123.91;;;19.66;74.68
77086;BME280;66014;53.134;18.006;2023-09-19T03:10:50;100121.50;;;19.54;74.85
77086;BME280;66014;53.134;18.006;2023-09-19T03:13:16;100126.83;;;19.45;75.86
77086;BME280;66014;53.134;18.006;2023-09-19T03:15:43;100126.52;;;19.39;75.68
77086;BME280;66014;53.134;18.006;2023-09-19T03:18:16;100123.03;;;19.37;76.03
77086;BME280;66014;53.134;18.006;2023-09-19T03:20:55;100118.39;;;19.34;76.07
77086;BME280;66014;53.134;18.006;2023-09-19T03:23:22;100117.33;;;19.32;76.46
77086;BME280;66014;53.134;18.006;2023-09-19T03:25:49;100118.41;;;19.29;76.57
77086;BME280;66014;53.134;18.006;2023-09-19T03:28:17;100115.48;;;19.24;77.30
77086;BME280;66014;53.134;18.006;2023-09-19T03:30:44;100115.73;;;19.18;77.12
77086;BME280;66014;53.134;18.006;2023-09-19T03:33:11;100117.08;;;19.14;77.02
77086;BME280;66014;53.134;18.006;2023-09-19T03:35:39;100115.13;;;19.11;77.30
77086;BME280;66014;53.134;18.006;2023-09-19T03:38:06;100117.79;;;19.08;77.72
77086;BME280;66014;53.134;18.006;2023-09-19T03:40:33;100119.73;;;19.05;77.95
77086;BME280;66014;53.134;18.006;2023-09-19T03:43:01;100114.44;;;19.02;78.14
77086;BME280;66014;53.134;18.006;2023-09-19T03:45:30;100112.64;;;19.01;78.16
77086;BME280;66014;53.134;18.006;2023-09-19T03:47:58;100120.30;;;19.00;78.06
77086;BME280;66014;53.134;18.006;2023-09-19T03:50:26;100122.07;;;19.00;78.41
77086;BME280;66014;53.134;18.006;2023-09-19T03:52:56;100120.79;;;18.98;78.44
77086;BME280;66014;53.134;18.006;2023-09-19T03:55:23;100119.27;;;18.98;78.56
77086;BME280;66014;53.134;18.006;2023-09-19T03:57:50;100121.59;;;18.98;78.61
77086;BME280;66014;53.134;18.006;2023-09-19T04:00:18;100120.48;;;18.96;78.99
77086;BME280;66014;53.134;18.006;2023-09-19T04:02:48;100121.28;;;18.94;78.89
77086;BME280;66014;53.134;18.006;2023-09-19T04:08:56;100103.18;;;18.99;78.49
77086;BME280;66014;53.134;18.006;2023-09-19T04:11:45;100098.25;;;19.02;78.82
77086;BME280;66014;53.134;18.006;2023-09-19T04:14:14;100083.18;;;19.01;78.77
77086;BME280;66014;53.134;18.006;2023-09-19T04:16:56;100084.68;;;19.00;78.63
77086;BME280;66014;53.134;18.006;2023-09-19T04:19:23;100084.14;;;19.00;79.08
77086;BME280;66014;53.134;18.006;2023-09-19T04:21:54;100089.66;;;18.98;78.79
77086;BME280;66014;53.134;18.006;2023-09-19T04:24:20;100096.09;;;18.99;79.08
77086;BME280;66014;53.134;18.006;2023-09-19T04:26:47;100085.23;;;18.98;78.97
77086;BME280;66014;53.134;18.006;2023-09-19T04:29:14;100084.89;;;18.96;78.97
77086;BME280;66014;53.134;18.006;2023-09-19T04:31:42;100091.28;;;18.94;79.07
77086;BME280;66014;53.134;18.006;2023-09-19T04:34:10;100095.87;;;18.92;79.30
77086;BME280;66014;53.134;18.006;2023-09-19T04:36:42;100103.96;;;18.92;79.14
77086;BME280;66014;53.134;18.006;2023-09-19T04:39:09;100113.41;;;18.92;79.23
77086;BME280;66014;53.134;18.006;2023-09-19T04:41:37;100111.60;;;18.91;79.25
77086;BME280;66014;53.134;18.006;2023-09-19T04:44:09;100114.13;;;18.90;79.25
77086;BME280;66014;53.134;18.006;2023-09-19T04:46:36;100114.30;;;18.88;79.53
77086;BME280;66014;53.134;18.006;2023-09-19T04:49:03;100109.80;;;18.86;79.92
77086;BME280;66014;53.134;18.006;2023-09-19T04:51:29;100107.45;;;18.84;79.58
77086;BME280;66014;53.134;18.006;2023-09-19T04:54:01;100117.50;;;18.85;79.67
77086;BME280;66014;53.134;18.006;2023-09-19T04:56:27;100117.58;;;18.87;79.63
77086;BME280;66014;53.134;18.006;2023-09-19T04:58:55;100116.03;;;18.88;80.09
77086;BME280;66014;53.134;18.006;2023-09-19T05:01:21;100112.33;;;18.86;79.76
77086;BME280;66014;53.134;18.006;2023-09-19T05:03:49;100107.89;;;18.85;79.89
77086;BME280;66014;53.134;18.006;2023-09-19T05:06:20;100104.79;;;18.83;79.87
77086;BME280;66014;53.134;18.006;2023-09-19T05:08:50;100105.47;;;18.82;80.25
77086;BME280;66014;53.134;18.006;2023-09-19T05:11:20;100102.59;;;18.81;80.21
77086;BME280;66014;53.134;18.006;2023-09-19T05:13:54;100101.22;;;18.79;80.36
77086;BME280;66014;53.134;18.006;2023-09-19T05:16:21;100091.81;;;18.79;80.34
77086;BME280;66014;53.134;18.006;2023-09-19T05:18:48;100103.84;;;18.79;80.25
77086;BME280;66014;53.134;18.006;2023-09-19T05:21:16;100108.06;;;18.79;80.43
77086;BME280;66014;53.134;18.006;2023-09-19T05:23:43;100111.27;;;18.81;80.10
77086;BME280;66014;53.134;18.006;2023-09-19T05:26:10;100108.91;;;18.82;80.24
77086;BME280;66014;53.134;18.006;2023-09-19T05:28:38;100111.84;;;18.83;80.44
77086;BME280;66014;53.134;18.006;2023-09-19T05:31:05;100112.70;;;18.82;80.40
77086;BME280;66014;53.134;18.006;2023-09-19T05:33:31;100119.66;;;18.83;80.55
77086;BME280;66014;53.134;18.006;2023-09-19T05:35:59;100126.09;;;18.83;80.52
77086;BME280;66014;53.134;18.006;2023-09-19T05:38:25;100129.45;;;18.84;80.31
77086;BME280;66014;53.134;18.006;2023-09-19T05:40:53;100126.84;;;18.86;80.32
77086;BME280;66014;53.134;18.006;2023-09-19T05:43:21;100128.26;;;18.87;80.45
77086;BME280;66014;53.134;18.006;2023-09-19T05:45:48;100128.63;;;18.86;80.32
77086;BME280;66014;53.134;18.006;2023-09-19T05:48:19;100131.73;;;18.85;80.36
77086;BME280;66014;53.134;18.006;2023-09-19T05:50:48;100130.67;;;18.86;80.18
77086;BME280;66014;53.134;18.006;2023-09-19T05:53:17;100129.52;;;18.88;80.05
77086;BME280;66014;53.134;18.006;2023-09-19T05:55:44;100123.11;;;18.92;79.85
77086;BME280;66014;53.134;18.006;2023-09-19T05:58:11;100123.23;;;18.93;79.63
77086;BME280;66014;53.134;18.006;2023-09-19T06:00:41;100123.23;;;18.95;79.67
77086;BME280;66014;53.134;18.006;2023-09-19T06:03:13;100131.85;;;18.92;79.62
77086;BME280;66014;53.134;18.006;2023-09-19T06:05:40;100138.90;;;18.91;79.59
77086;BME280;66014;53.134;18.006;2023-09-19T06:08:08;100141.42;;;18.91;79.58
77086;BME280;66014;53.134;18.006;2023-09-19T06:10:35;100139.46;;;18.92;79.38
77086;BME280;66014;53.134;18.006;2023-09-19T06:13:04;100143.61;;;18.92;79.32
77086;BME280;66014;53.134;18.006;2023-09-19T06:15:32;100140.52;;;18.94;79.16
77086;BME280;66014;53.134;18.006;2023-09-19T06:17:59;100143.58;;;19.00;79.01
77086;BME280;66014;53.134;18.006;2023-09-19T06:20:29;100145.40;;;19.02;78.86
77086;BME280;66014;53.134;18.006;2023-09-19T06:23:00;100146.63;;;19.04;78.68
77086;BME280;66014;53.134;18.006;2023-09-19T06:25:29;100148.81;;;19.09;78.55
77086;BME280;66014;53.134;18.006;2023-09-19T06:27:56;100153.41;;;19.12;78.20
77086;BME280;66014;53.134;18.006;2023-09-19T06:30:24;100155.46;;;19.15;78.27
77086;BME280;66014;53.134;18.006;2023-09-19T06:32:58;100158.38;;;19.15;78.24
77086;BME280;66014;53.134;18.006;2023-09-19T06:35:25;100159.39;;;19.14;78.04
77086;BME280;66014;53.134;18.006;2023-09-19T06:37:53;100167.88;;;19.13;78.19
77086;BME280;66014;53.134;18.006;2023-09-19T06:40:20;100167.70;;;19.08;78.43
77086;BME280;66014;53.134;18.006;2023-09-19T06:42:51;100171.86;;;19.04;78.54
77086;BME280;66014;53.134;18.006;2023-09-19T06:45:23;100173.87;;;19.00;78.56
77086;BME280;66014;53.134;18.006;2023-09-19T06:47:53;100173.24;;;18.99;78.81
77086;BME280;66014;53.134;18.006;2023-09-19T06:50:37;100172.95;;;18.98;78.77
77086;BME280;66014;53.134;18.006;2023-09-19T06:53:05;100176.58;;;18.98;78.75
77086;BME280;66014;53.134;18.006;2023-09-19T06:55:31;100179.45;;;18.96;78.95
77086;BME280;66014;53.134;18.006;2023-09-19T06:57:58;100183.17;;;18.96;78.76
77086;BME280;66014;53.134;18.006;2023-09-19T07:00:25;100183.11;;;18.95;78.71
77086;BME280;66014;53.134;18.006;2023-09-19T07:03:04;100187.42;;;18.95;78.89
77086;BME280;66014;53.134;18.006;2023-09-19T07:05:35;100188.89;;;18.96;78.57
77086;BME280;66014;53.134;18.006;2023-09-19T07:08:06;100188.20;;;18.99;78.39
77086;BME280;66014;53.134;18.006;2023-09-19T07:10:33;100191.52;;;19.05;78.49
77086;BME280;66014;53.134;18.006;2023-09-19T07:13:01;100189.84;;;19.07;78.34
77086;BME280;66014;53.134;18.006;2023-09-19T07:15:32;100193.24;;;19.10;78.13
77086;BME280;66014;53.134;18.006;2023-09-19T07:18:02;100193.14;;;19.16;78.15
77086;BME280;66014;53.134;18.006;2023-09-19T07:20:29;100199.45;;;19.24;77.84
77086;BME280;66014;53.134;18.006;2023-09-19T07:23:01;100200.90;;;19.33;77.63
77086;BME280;66014;53.134;18.006;2023-09-19T07:25:28;100199.59;;;19.37;77.42
77086;BME280;66014;53.134;18.006;2023-09-19T07:27:55;100197.20;;;19.37;77.33
77086;BME280;66014;53.134;18.006;2023-09-19T07:30:22;100200.11;;;19.37;77.33
77086;BME280;66014;53.134;18.006;2023-09-19T07:32:50;100203.42;;;19.38;77.30
77086;BME280;66014;53.134;18.006;2023-09-19T07:35:39;100206.14;;;19.42;77.10
77086;BME280;66014;53.134;18.006;2023-09-19T07:38:08;100205.84;;;19.46;76.96
77086;BME280;66014;53.134;18.006;2023-09-19T07:40:37;100212.70;;;19.50;76.75
77086;BME280;66014;53.134;18.006;2023-09-19T07:43:04;100214.56;;;19.55;76.65
77086;BME280;66014;53.134;18.006;2023-09-19T07:45:31;100217.92;;;19.63;76.43
77086;BME280;66014;53.134;18.006;2023-09-19T07:47:58;100222.36;;;19.63;76.27
77086;BME280;66014;53.134;18.006;2023-09-19T07:50:30;100220.98;;;19.61;76.35
77086;BME280;66014;53.134;18.006;2023-09-19T07:52:56;100228.64;;;19.64;76.37
77086;BME280;66014;53.134;18.006;2023-09-19T07:55:23;100236.78;;;19.66;76.45
77086;BME280;66014;53.134;18.006;2023-09-19T07:57:52;100237.79;;;19.62;76.49
77086;BME280;66014;53.134;18.006;2023-09-19T08:00:19;100237.10;;;19.56;76.58
77086;BME280;66014;53.134;18.006;2023-09-19T08:02:46;100241.99;;;19.55;76.65
77086;BME280;66014;53.134;18.006;2023-09-19T08:05:14;100243.33;;;19.55;76.37
77086;BME280;66014;53.134;18.006;2023-09-19T08:07:45;100242.64;;;19.56;76.13
77086;BME280;66014;53.134;18.006;2023-09-19T08:10:15;100236.92;;;19.60;76.09
77086;BME280;66014;53.134;18.006;2023-09-19T08:12:43;100236.52;;;19.67;75.87
77086;BME280;66014;53.134;18.006;2023-09-19T08:15:17;100237.05;;;19.70;75.50
77086;BME280;66014;53.134;18.006;2023-09-19T08:17:46;100240.05;;;19.81;75.45
77086;BME280;66014;53.134;18.006;2023-09-19T08:20:13;100246.20;;;20.09;74.56
77086;BME280;66014;53.134;18.006;2023-09-19T08:22:49;100244.95;;;20.16;74.52
77086;BME280;66014;53.134;18.006;2023-09-19T08:25:24;100249.44;;;20.22;74.17
77086;BME280;66014;53.134;18.006;2023-09-19T08:28:00;100247.07;;;20.16;74.02
77086;BME280;66014;53.134;18.006;2023-09-19T08:30:29;100249.02;;;20.06;74.34
77086;BME280;66014;53.134;18.006;2023-09-19T08:32:57;100248.23;;;20.05;74.61
77086;BME280;66014;53.134;18.006;2023-09-19T08:35:27;100253.11;;;20.06;74.42
77086;BME280;66014;53.134;18.006;2023-09-19T08:37:54;100264.04;;;20.06;74.30
77086;BME280;66014;53.134;18.006;2023-09-19T08:40:22;100266.31;;;20.13;74.14
77086;BME280;66014;53.134;18.006;2023-09-19T08:42:55;100270.33;;;20.32;73.81
77086;BME280;66014;53.134;18.006;2023-09-19T08:45:26;100275.77;;;20.56;72.95
77086;BME280;66014;53.134;18.006;2023-09-19T08:48:27;100284.58;;;20.55;72.68
77086;BME280;66014;53.134;18.006;2023-09-19T08:56:13;100284.25;;;21.51;69.91
77086;BME280;66014;53.134;18.006;2023-09-19T08:59:02;100284.42;;;22.41;68.00
77086;BME280;66014;53.134;18.006;2023-09-19T09:01:31;100288.71;;;23.48;65.17
77086;BME280;66014;53.134;18.006;2023-09-19T09:03:59;100286.40;;;23.60;64.83
77086;BME280;66014;53.134;18.006;2023-09-19T09:06:26;100287.84;;;23.41;64.10
77086;BME280;66014;53.134;18.006;2023-09-19T09:08:54;100287.19;;;23.43;64.15
77086;BME280;66014;53.134;18.006;2023-09-19T09:11:21;100287.43;;;23.60;62.85
77086;BME280;66014;53.134;18.006;2023-09-19T09:13:50;100284.66;;;23.49;63.38
77086;BME280;66014;53.134;18.006;2023-09-19T09:16:17;100284.79;;;23.38;61.57
77086;BME280;66014;53.134;18.006;2023-09-19T09:18:46;100287.58;;;23.48;61.91
77086;BME280;66014;53.134;18.006;2023-09-19T09:21:13;100289.97;;;24.32;59.94
77086;BME280;66014;53.134;18.006;2023-09-19T09:23:43;100285.37;;;24.26;59.52
77086;BME280;66014;53.134;18.006;2023-09-19T09:26:09;100292.95;;;24.05;59.49
77086;BME280;66014;53.134;18.006;2023-09-19T09:28:44;100293.90;;;23.76;60.23
77086;BME280;66014;53.134;18.006;2023-09-19T09:31:24;100294.84;;;23.68;59.59
77086;BME280;66014;53.134;18.006;2023-09-19T09:33:55;100291.67;;;23.65;60.37
77086;BME280;66014;53.134;18.006;2023-09-19T09:36:35;100292.49;;;23.68;59.64
77086;BME280;66014;53.134;18.006;2023-09-19T09:39:03;100296.83;;;23.60;60.01
77086;BME280;66014;53.134;18.006;2023-09-19T09:41:51;100296.44;;;23.47;59.95
77086;BME280;66014;53.134;18.006;2023-09-19T09:44:18;100297.14;;;23.40;59.47
77086;BME280;66014;53.134;18.006;2023-09-19T09:46:46;100299.63;;;23.43;59.76
77086;BME280;66014;53.134;18.006;2023-09-19T09:49:24;100302.38;;;23.56;59.34
77086;BME280;66014;53.134;18.006;2023-09-19T09:52:04;100309.04;;;23.95;58.88
77086;BME280;66014;53.134;18.006;2023-09-19T09:55:05;100305.40;;;24.45;57.85
77086;BME280;66014;53.134;18.006;2023-09-19T09:57:33;100303.43;;;24.47;56.28
77086;BME280;66014;53.134;18.006;2023-09-19T10:00:02;100299.81;;;24.65;56.17
77086;BME280;66014;53.134;18.006;2023-09-19T10:02:38;100297.46;;;24.96;55.37
77086;BME280;66014;53.134;18.006;2023-09-19T10:05:21;100303.80;;;24.93;55.61
77086;BME280;66014;53.134;18.006;2023-09-19T10:07:54;100312.16;;;24.99;54.42
77086;BME280;66014;53.134;18.006;2023-09-19T10:10:31;100319.11;;;25.04;54.22
77086;BME280;66014;53.134;18.006;2023-09-19T10:13:14;100312.48;;;25.65;53.63
77086;BME280;66014;53.134;18.006;2023-09-19T10:15:49;100318.14;;;25.46;53.19
77086;BME280;66014;53.134;18.006;2023-09-19T10:18:25;100322.70;;;25.18;53.36
77086;BME280;66014;53.134;18.006;2023-09-19T10:20:52;100322.56;;;24.84;53.55
77086;BME280;66014;53.134;18.006;2023-09-19T10:23:21;100327.54;;;24.52;53.87
77086;BME280;66014;53.134;18.006;2023-09-19T10:25:52;100333.95;;;24.18;54.20
77086;BME280;66014;53.134;18.006;2023-09-19T10:28:21;100339.34;;;23.95;54.17
77086;BME280;66014;53.134;18.006;2023-09-19T10:30:50;100345.71;;;23.76;53.99
77086;BME280;66014;53.134;18.006;2023-09-19T10:33:19;100349.25;;;23.73;53.60
77086;BME280;66014;53.134;18.006;2023-09-19T10:35:54;100354.86;;;23.74;53.55
77086;BME280;66014;53.134;18.006;2023-09-19T10:38:27;100359.48;;;23.83;53.31
77086;BME280;66014;53.134;18.006;2023-09-19T10:40:56;100361.64;;;24.03;52.96
77086;BME280;66014;53.134;18.006;2023-09-19T10:43:30;100364.35;;;24.32;51.74
77086;BME280;66014;53.134;18.006;2023-09-19T10:46:08;100360.50;;;24.19;51.79
77086;BME280;66014;53.134;18.006;2023-09-19T10:48:40;100355.44;;;24.08;52.81
77086;BME280;66014;53.134;18.006;2023-09-19T10:51:16;100354.55;;;24.48;51.42
77086;BME280;66014;53.134;18.006;2023-09-19T10:56:36;100352.33;;;25.37;49.79
77086;BME280;66014;53.134;18.006;2023-09-19T10:59:07;100347.41;;;25.49;49.78
77086;BME280;66014;53.134;18.006;2023-09-19T11:01:42;100333.00;;;25.83;49.63
77086;BME280;66014;53.134;18.006;2023-09-19T11:07:02;100333.48;;;26.25;47.55
77086;BME280;66014;53.134;18.006;2023-09-19T11:15:08;100336.27;;;25.42;46.65
77086;BME280;66014;53.134;18.006;2023-09-19T11:17:43;100327.67;;;25.17;46.53
77086;BME280;66014;53.134;18.006;2023-09-19T11:20:19;100330.35;;;25.12;47.20
77086;BME280;66014;53.134;18.006;2023-09-19T11:30:45;100352.02;;;25.94;43.97
77086;BME280;66014;53.134;18.006;2023-09-19T11:33:29;100345.23;;;25.80;42.89
77086;BME280;66014;53.134;18.006;2023-09-19T11:36:11;100344.86;;;25.78;42.99
77086;BME280;66014;53.134;18.006;2023-09-19T11:46:27;100357.14;;;26.09;42.63
77086;BME280;66014;53.134;18.006;2023-09-19T11:48:54;100359.23;;;26.00;40.79
77086;BME280;66014;53.134;18.006;2023-09-19T11:51:24;100359.48;;;25.62;41.50
77086;BME280;66014;53.134;18.006;2023-09-19T11:53:55;100362.64;;;25.30;42.25
77086;BME280;66014;53.134;18.006;2023-09-19T11:56:24;100365.09;;;25.03;42.58
77086;BME280;66014;53.134;18.006;2023-09-19T11:58:53;100363.94;;;24.87;43.13
77086;BME280;66014;53.134;18.006;2023-09-19T12:01:31;100371.54;;;24.97;43.65
77086;BME280;66014;53.134;18.006;2023-09-19T12:04:01;100368.02;;;25.33;42.42
77086;BME280;66014;53.134;18.006;2023-09-19T12:06:29;100374.46;;;25.71;41.76
77086;BME280;66014;53.134;18.006;2023-09-19T12:08:56;100378.95;;;26.06;40.99
77086;BME280;66014;53.134;18.006;2023-09-19T12:11:29;100390.58;;;26.24;40.50
77086;BME280;66014;53.134;18.006;2023-09-19T12:13:59;100389.60;;;26.23;37.22
77086;BME280;66014;53.134;18.006;2023-09-19T12:16:30;100396.20;;;25.95;38.39
77086;BME280;66014;53.134;18.006;2023-09-19T12:18:57;100398.68;;;25.92;39.11
77086;BME280;66014;53.134;18.006;2023-09-19T12:21:29;100399.47;;;25.96;39.39
77086;BME280;66014;53.134;18.006;2023-09-19T12:24:05;100391.43;;;25.99;39.61
77086;BME280;66014;53.134;18.006;2023-09-19T12:26:42;100397.29;;;26.04;38.89
77086;BME280;66014;53.134;18.006;2023-09-19T12:29:14;100395.31;;;25.86;39.21
77086;BME280;66014;53.134;18.006;2023-09-19T12:31:55;100400.23;;;25.69;39.70
77086;BME280;66014;53.134;18.006;2023-09-19T12:34:25;100408.39;;;25.61;38.99
77086;BME280;66014;53.134;18.006;2023-09-19T12:37:14;100405.71;;;25.50;38.86
77086;BME280;66014;53.134;18.006;2023-09-19T12:39:50;100411.18;;;25.37;38.55
77086;BME280;66014;53.134;18.006;2023-09-19T12:42:18;100416.67;;;25.20;38.84
77086;BME280;66014;53.134;18.006;2023-09-19T12:44:47;100417.80;;;25.08;40.01
77086;BME280;66014;53.134;18.006;2023-09-19T12:47:16;100421.59;;;25.15;40.74
77086;BME280;66014;53.134;18.006;2023-09-19T12:50:10;100425.65;;;25.22;40.43
77086;BME280;66014;53.134;18.006;2023-09-19T12:52:41;100430.20;;;25.14;39.47
77086;BME280;66014;53.134;18.006;2023-09-19T12:55:26;100425.20;;;24.99;39.08
77086;BME280;66014;53.134;18.006;2023-09-19T12:58:11;100425.25;;;24.94;39.74
77086;BME280;66014;53.134;18.006;2023-09-19T13:00:43;100428.16;;;24.85;39.98
77086;BME280;66014;53.134;18.006;2023-09-19T13:03:26;100433.18;;;24.71;39.48
77086;BME280;66014;53.134;18.006;2023-09-19T13:08:26;100427.23;;;24.84;39.42
77086;BME280;66014;53.134;18.006;2023-09-19T13:11:15;100430.19;;;24.76;38.59
77086;BME280;66014;53.134;18.006;2023-09-19T13:13:47;100426.55;;;24.63;39.27
77086;BME280;66014;53.134;18.006;2023-09-19T13:16:21;100427.87;;;24.59;39.81
77086;BME280;66014;53.134;18.006;2023-09-19T13:18:54;100427.52;;;24.57;39.19
77086;BME280;66014;53.134;18.006;2023-09-19T13:21:33;100433.19;;;24.75;39.27
77086;BME280;66014;53.134;18.006;2023-09-19T13:24:23;100428.11;;;25.02;39.71
77086;BME280;66014;53.134;18.006;2023-09-19T13:26:58;100430.45;;;25.26;38.19
77086;BME280;66014;53.134;18.006;2023-09-19T13:29:34;100436.27;;;25.21;38.14
77086;BME280;66014;53.134;18.006;2023-09-19T13:32:01;100432.04;;;25.17;37.68
77086;BME280;66014;53.134;18.006;2023-09-19T13:34:28;100432.66;;;25.12;38.08
77086;BME280;66014;53.134;18.006;2023-09-19T13:36:55;100437.05;;;25.06;37.95
77086;BME280;66014;53.134;18.006;2023-09-19T13:39:22;100435.27;;;24.97;37.46
77086;BME280;66014;53.134;18.006;2023-09-19T13:41:51;100430.67;;;24.84;37.45
77086;BME280;66014;53.134;18.006;2023-09-19T13:44:17;100433.35;;;24.79;36.76
77086;BME280;66014;53.134;18.006;2023-09-19T13:46:45;100431.78;;;24.67;36.96
77086;BME280;66014;53.134;18.006;2023-09-19T13:49:16;100428.96;;;24.60;37.25
77086;BME280;66014;53.134;18.006;2023-09-19T13:51:44;100427.65;;;24.64;36.67
77086;BME280;66014;53.134;18.006;2023-09-19T13:54:16;100433.45;;;24.47;36.82
77086;BME280;66014;53.134;18.006;2023-09-19T13:56:43;100438.30;;;24.32;37.31
77086;BME280;66014;53.134;18.006;2023-09-19T13:59:09;100444.13;;;24.26;37.51
77086;BME280;66014;53.134;18.006;2023-09-19T14:01:36;100444.37;;;24.11;37.79
77086;BME280;66014;53.134;18.006;2023-09-19T14:04:02;100438.42;;;23.95;38.16
77086;BME280;66014;53.134;18.006;2023-09-19T14:06:29;100439.42;;;23.87;38.63
77086;BME280;66014;53.134;18.006;2023-09-19T14:08:55;100438.40;;;23.76;39.25